Time;durP1;ratioP1;P1;durP2;ratioP2;P2;SDS_P1;SDS_P2;PMS_P1;PMS_P2;Temp;Humidity;BMP_temperature;BMP_pressure;BME280_temperature;BME280_humidity;BME280_pressure;Samples;Min_cycle;Max_cycle;Signal;HPM_P1;HPM_P2
2023/01/16 00:01:55;;;;;;;9.35;4.28;;;3.70;99.90;;;;;;4997869;28;20076;-80
2023/01/16 00:04:21;;;;;;;7.55;4.07;;;3.70;99.90;;;;;;4998469;28;20065;-80
2023/01/16 00:06:47;;;;;;;8.75;4.60;;;3.70;99.90;;;;;;4997227;28;20068;-80
2023/01/16 00:09:13;;;;;;;9.50;4.57;;;3.70;99.90;;;;;;5017889;28;20555;-80
2023/01/16 00:11:38;;;;;;;8.07;4.00;;;3.70;99.90;;;;;;5000516;28;20095;-80
2023/01/16 00:14:04;;;;;;;8.07;4.38;;;3.70;99.90;;;;;;5002531;28;20517;-80
2023/01/16 00:16:30;;;;;;;9.88;3.83;;;3.70;99.90;;;;;;5008321;28;20514;-79
2023/01/16 00:18:56;;;;;;;9.65;4.20;;;3.60;99.90;;;;;;4980204;28;20033;-80
2023/01/16 00:21:25;;;;;;;8.45;4.85;;;3.60;99.90;;;;;;4997713;28;20125;-80
2023/01/16 00:23:56;;;;;;;7.38;3.85;;;3.70;99.90;;;;;;4981870;28;20061;-79
2023/01/16 00:26:22;;;;;;;10.25;4.57;;;3.70;99.90;;;;;;4989562;28;20125;-80
2023/01/16 00:28:48;;;;;;;7.20;4.10;;;3.70;99.90;;;;;;5001675;28;20568;-80
2023/01/16 00:31:14;;;;;;;8.48;3.75;;;3.70;99.90;;;;;;4995070;28;20124;-80
2023/01/16 00:33:39;;;;;;;7.68;4.47;;;3.70;99.90;;;;;;4997836;28;20192;-79
2023/01/16 00:36:05;;;;;;;6.22;4.13;;;3.60;99.90;;;;;;5015218;28;20038;-80
2023/01/16 00:38:32;;;;;;;10.05;4.43;;;3.60;99.90;;;;;;4998457;28;20037;-80
2023/01/16 00:40:58;;;;;;;8.18;4.30;;;3.60;99.90;;;;;;4989552;28;20542;-80
2023/01/16 00:43:23;;;;;;;7.57;4.18;;;3.60;99.90;;;;;;5003095;28;20046;-80
2023/01/16 00:45:49;;;;;;;11.25;4.57;;;3.50;99.90;;;;;;5017710;28;20544;-80
2023/01/16 00:48:15;;;;;;;10.85;5.45;;;3.50;99.90;;;;;;4988853;28;20048;-80
2023/01/16 00:50:40;;;;;;;9.40;4.72;;;3.50;99.90;;;;;;4997059;28;20037;-80
2023/01/16 00:53:06;;;;;;;6.70;4.10;;;3.50;99.90;;;;;;4997680;28;20488;-80
2023/01/16 00:55:36;;;;;;;9.30;4.20;;;3.50;99.90;;;;;;4988688;28;20037;-79
2023/01/16 00:58:03;;;;;;;10.63;5.13;;;3.50;99.90;;;;;;5014055;28;20037;-80
2023/01/16 01:00:28;;;;;;;11.90;5.40;;;3.50;99.90;;;;;;4996756;28;20407;-79
2023/01/16 01:02:54;;;;;;;8.40;4.47;;;3.50;99.90;;;;;;4986241;28;20036;-80
2023/01/16 01:05:20;;;;;;;10.30;4.50;;;3.50;99.90;;;;;;5000196;28;20064;-80
2023/01/16 01:07:46;;;;;;;10.52;5.00;;;3.60;99.90;;;;;;5013718;28;20041;-80
2023/01/16 01:10:11;;;;;;;9.65;4.50;;;3.60;99.90;;;;;;5015581;28;20038;-81
2023/01/16 01:12:37;;;;;;;8.88;4.35;;;3.60;99.90;;;;;;4981882;28;20471;-80
2023/01/16 01:15:03;;;;;;;8.25;4.13;;;3.70;99.90;;;;;;5012552;28;20041;-80
2023/01/16 01:17:29;;;;;;;10.73;4.45;;;3.70;99.90;;;;;;4997920;28;20048;-80
2023/01/16 01:19:55;;;;;;;12.23;4.63;;;3.70;99.90;;;;;;5008005;28;20092;-79
2023/01/16 01:22:21;;;;;;;11.65;4.47;;;3.70;99.90;;;;;;4994332;28;20507;-80
2023/01/16 01:24:48;;;;;;;12.30;4.70;;;3.80;99.90;;;;;;4998890;28;20038;-80
2023/01/16 01:27:18;;;;;;;8.57;4.10;;;3.80;99.90;;;;;;4992735;28;20041;-80
2023/01/16 01:29:43;;;;;;;13.55;4.75;;;3.80;99.90;;;;;;5001468;28;20033;-80
2023/01/16 01:32:09;;;;;;;7.90;4.10;;;3.90;99.90;;;;;;4994926;28;21317;-80
2023/01/16 01:34:35;;;;;;;12.10;4.55;;;3.90;99.90;;;;;;5001142;28;20033;-80
2023/01/16 01:37:05;;;;;;;11.07;4.70;;;3.90;99.90;;;;;;5004885;28;20598;-80
2023/01/16 01:39:31;;;;;;;8.18;3.70;;;3.90;99.90;;;;;;5002468;28;20050;-79
2023/01/16 01:44:53;;;;;;;10.70;4.10;;;3.90;99.90;;;;;;5013287;28;20076;-80
2023/01/16 01:47:33;;;;;;;10.23;4.00;;;3.90;99.90;;;;;;4996415;28;20056;-80
2023/01/16 01:50:02;;;;;;;10.60;4.55;;;3.90;99.90;;;;;;5002640;28;20041;-79
2023/01/16 01:52:29;;;;;;;8.68;3.92;;;3.90;99.90;;;;;;5000465;28;20403;-80
2023/01/16 01:55:01;;;;;;;8.57;4.38;;;3.90;99.90;;;;;;5001250;28;20112;-80
2023/01/16 01:57:32;;;;;;;11.02;4.20;;;4.00;99.90;;;;;;5002015;28;20112;-80
2023/01/16 02:00:06;;;;;;;11.50;4.35;;;4.00;99.90;;;;;;5011612;28;20040;-80
2023/01/16 02:02:36;;;;;;;10.60;4.05;;;4.00;99.90;;;;;;5013444;28;20038;-79
2023/01/16 02:05:06;;;;;;;7.70;4.20;;;4.00;99.90;;;;;;4997690;28;20033;-80
2023/01/16 02:07:32;;;;;;;6.63;3.72;;;4.00;99.90;;;;;;4982644;28;20117;-80
2023/01/16 02:10:13;;;;;;;7.93;4.55;;;4.00;99.90;;;;;;4998801;28;20061;-80
2023/01/16 02:12:39;;;;;;;8.35;4.63;;;4.00;99.90;;;;;;4993834;28;20120;-80
2023/01/16 02:15:05;;;;;;;7.95;4.38;;;4.00;99.90;;;;;;4984797;28;20042;-80
2023/01/16 02:20:25;;;;;;;8.05;4.35;;;4.00;99.90;;;;;;5017358;28;20056;-80
2023/01/16 02:23:09;;;;;;;8.82;4.55;;;4.00;99.90;;;;;;4996925;28;20573;-80
2023/01/16 02:25:52;;;;;;;10.27;4.85;;;4.00;99.90;;;;;;5000516;28;20049;-80
2023/01/16 02:28:52;;;;;;;9.40;5.35;;;4.00;99.90;;;;;;4985111;28;20037;-79
2023/01/16 02:31:53;;;;;;;8.77;4.88;;;4.00;99.90;;;;;;4980633;28;20037;-80
2023/01/16 02:34:47;;;;;;;9.32;5.15;;;4.00;99.90;;;;;;4979671;28;20049;-79
2023/01/16 02:37:18;;;;;;;10.05;5.18;;;4.00;99.90;;;;;;5005298;28;20030;-80
2023/01/16 02:39:57;;;;;;;7.50;5.00;;;4.00;99.90;;;;;;5015593;28;20037;-80
2023/01/16 02:42:43;;;;;;;6.82;5.28;;;3.90;99.90;;;;;;5014559;28;20045;-80
2023/01/16 02:45:42;;;;;;;9.20;5.20;;;3.80;99.90;;;;;;5016819;28;20041;-80
2023/01/16 02:48:56;;;;;;;10.30;6.03;;;3.70;99.90;;;;;;5000051;28;20037;-80
2023/01/16 02:51:36;;;;;;;12.20;6.35;;;3.70;99.90;;;;;;4947717;28;20421;-80
2023/01/16 02:54:14;;;;;;;7.45;5.63;;;3.70;99.90;;;;;;5018922;28;20088;-80
2023/01/16 02:56:45;;;;;;;9.90;6.72;;;3.70;99.90;;;;;;5020201;28;20045;-80
2023/01/16 02:59:13;;;;;;;8.70;6.50;;;3.70;99.90;;;;;;4997243;28;20073;-81
2023/01/16 03:01:40;;;;;;;10.25;6.68;;;3.70;99.90;;;;;;4994801;28;20510;-81
2023/01/16 03:04:35;;;;;;;11.70;7.10;;;3.70;99.90;;;;;;5015763;28;20491;-80
2023/01/16 03:07:33;;;;;;;11.15;7.47;;;3.70;99.90;;;;;;4990179;28;20038;-79
2023/01/16 03:10:27;;;;;;;10.15;7.60;;;3.80;99.90;;;;;;5014465;28;20037;-80
2023/01/16 03:13:23;;;;;;;10.88;7.85;;;3.80;99.90;;;;;;4998375;28;20042;-80
2023/01/16 03:15:54;;;;;;;12.55;8.48;;;3.90;99.90;;;;;;5017768;28;20408;-80
2023/01/16 03:18:28;;;;;;;11.35;9.02;;;3.90;99.90;;;;;;5008226;28;20474;-80
2023/01/16 03:21:04;;;;;;;12.52;8.27;;;3.90;99.90;;;;;;4982162;28;20492;-80
2023/01/16 03:23:43;;;;;;;12.02;8.38;;;3.90;99.90;;;;;;4998174;28;20093;-80
2023/01/16 03:26:24;;;;;;;11.32;8.57;;;3.90;99.90;;;;;;5002058;28;20044;-80
2023/01/16 03:29:16;;;;;;;11.10;8.70;;;3.90;99.90;;;;;;4984784;28;20057;-81
2023/01/16 03:31:53;;;;;;;12.75;8.93;;;3.90;99.90;;;;;;4993388;28;20049;-80
2023/01/16 03:34:32;;;;;;;11.38;9.23;;;3.90;99.90;;;;;;4996872;28;20067;-80
2023/01/16 03:37:25;;;;;;;14.95;10.25;;;3.90;99.90;;;;;;5016076;28;20045;-81
2023/01/16 03:40:00;;;;;;;14.35;10.30;;;4.00;99.90;;;;;;5000435;28;20053;-80
2023/01/16 03:42:41;;;;;;;15.45;10.98;;;4.00;99.90;;;;;;5000567;28;20041;-81
2023/01/16 03:45:13;;;;;;;18.55;11.25;;;4.00;99.90;;;;;;5003624;28;20038;-79
2023/01/16 03:47:44;;;;;;;15.13;11.35;;;4.00;99.90;;;;;;4991690;28;20515;-80
2023/01/16 03:50:12;;;;;;;14.82;11.40;;;4.00;99.90;;;;;;5001345;28;20080;-80
2023/01/16 03:52:48;;;;;;;18.90;12.73;;;4.00;99.90;;;;;;5014544;28;20037;-80
2023/01/16 03:55:23;;;;;;;14.98;12.25;;;4.00;99.90;;;;;;5004851;28;20038;-80
2023/01/16 03:58:04;;;;;;;17.08;12.60;;;4.00;99.90;;;;;;5009593;28;20029;-80
2023/01/16 04:00:57;;;;;;;20.67;14.75;;;4.00;99.90;;;;;;5005771;28;20411;-80
2023/01/16 04:03:28;;;;;;;20.00;15.90;;;4.00;99.90;;;;;;5004152;28;20503;-80
2023/01/16 04:06:08;;;;;;;22.45;17.75;;;4.00;99.90;;;;;;5002425;28;20519;-80
2023/01/16 04:08:37;;;;;;;22.52;17.33;;;4.10;99.90;;;;;;4986067;28;20117;-80
2023/01/16 04:11:04;;;;;;;23.40;17.80;;;4.00;99.90;;;;;;4987776;28;20627;-81
2023/01/16 04:13:37;;;;;;;23.60;18.27;;;4.10;99.90;;;;;;5005614;28;20372;-80
2023/01/16 04:16:13;;;;;;;22.05;18.33;;;4.10;99.90;;;;;;5006050;28;20558;-80
2023/01/16 04:18:40;;;;;;;25.38;18.92;;;4.10;99.90;;;;;;5017607;28;20056;-81
2023/01/16 04:21:07;;;;;;;25.92;18.88;;;4.10;99.90;;;;;;5036903;23;20095;-77
2023/01/16 04:23:33;;;;;;;21.40;18.30;;;4.10;99.90;;;;;;4994904;28;20063;-77
2023/01/16 04:25:59;;;;;;;26.65;19.92;;;4.10;99.90;;;;;;5018530;28;20570;-80
2023/01/16 04:28:25;;;;;;;25.73;19.63;;;4.20;99.90;;;;;;5035246;28;20487;-80
2023/01/16 04:30:50;;;;;;;25.35;19.10;;;4.10;99.90;;;;;;5019059;28;20092;-80
2023/01/16 04:33:16;;;;;;;24.60;19.52;;;4.10;99.90;;;;;;4987187;28;20037;-79
2023/01/16 04:35:42;;;;;;;21.33;18.23;;;4.10;99.90;;;;;;5006030;28;20049;-80
2023/01/16 04:38:07;;;;;;;20.30;17.98;;;4.00;99.90;;;;;;5013645;28;20041;-79
2023/01/16 04:40:33;;;;;;;21.67;17.67;;;3.90;99.90;;;;;;5039897;28;20048;-79
2023/01/16 04:42:58;;;;;;;20.17;17.05;;;3.80;99.90;;;;;;5009601;28;20040;-79
2023/01/16 04:45:24;;;;;;;21.65;17.45;;;3.80;99.90;;;;;;5014075;28;20124;-79
2023/01/16 04:47:51;;;;;;;18.95;15.90;;;3.70;99.90;;;;;;5019507;28;20041;-80
2023/01/16 04:50:17;;;;;;;20.15;16.70;;;3.60;99.90;;;;;;5003904;28;20033;-79
2023/01/16 04:52:43;;;;;;;21.30;16.70;;;3.60;99.90;;;;;;5018727;28;20119;-80
2023/01/16 04:55:09;;;;;;;21.10;16.08;;;3.50;99.90;;;;;;4996737;28;20129;-80
2023/01/16 04:57:35;;;;;;;21.55;15.48;;;3.40;99.90;;;;;;5010994;28;20081;-79
2023/01/16 05:00:03;;;;;;;21.35;16.35;;;3.30;99.90;;;;;;5004380;28;20507;-79
2023/01/16 05:02:28;;;;;;;21.00;14.93;;;3.30;99.90;;;;;;5000915;28;20040;-79
2023/01/16 05:04:54;;;;;;;20.25;14.45;;;3.20;99.90;;;;;;5009153;28;20041;-79
2023/01/16 05:07:19;;;;;;;17.58;13.77;;;3.20;99.90;;;;;;5008159;28;20124;-79
2023/01/16 05:09:45;;;;;;;20.33;14.73;;;3.10;99.90;;;;;;5008592;28;20071;-79
2023/01/16 05:12:11;;;;;;;21.27;13.82;;;3.10;99.90;;;;;;4993701;28;20045;-79
2023/01/16 05:14:36;;;;;;;16.23;13.45;;;3.00;99.90;;;;;;5007502;28;20044;-79
2023/01/16 05:17:02;;;;;;;18.98;13.00;;;3.00;99.90;;;;;;4998579;28;20037;-79
2023/01/16 05:19:27;;;;;;;17.73;12.35;;;3.00;99.90;;;;;;5027239;28;20033;-79
2023/01/16 05:21:53;;;;;;;18.55;12.07;;;3.00;99.90;;;;;;5015248;28;20437;-80
2023/01/16 05:24:18;;;;;;;16.75;11.38;;;3.00;99.90;;;;;;5009282;28;20032;-79
2023/01/16 05:26:44;;;;;;;15.05;11.02;;;3.00;99.90;;;;;;5021651;28;20068;-79
2023/01/16 05:29:10;;;;;;;15.65;10.10;;;3.00;99.90;;;;;;5009191;28;20049;-79
2023/01/16 05:31:35;;;;;;;14.02;10.50;;;3.00;99.90;;;;;;5026105;28;20191;-79
2023/01/16 05:34:01;;;;;;;14.57;10.63;;;3.10;99.90;;;;;;5024066;28;20041;-79
2023/01/16 05:36:27;;;;;;;17.85;10.02;;;3.10;99.90;;;;;;5021986;28;20072;-79
2023/01/16 05:38:53;;;;;;;13.38;9.65;;;3.10;99.90;;;;;;5005757;28;20061;-79
2023/01/16 05:41:19;;;;;;;20.40;9.43;;;3.10;99.90;;;;;;5009147;28;20068;-79
2023/01/16 05:43:44;;;;;;;14.10;9.05;;;3.10;99.90;;;;;;5020725;28;20038;-80
2023/01/16 05:46:10;;;;;;;13.00;9.60;;;3.10;99.90;;;;;;5030952;28;20415;-79
2023/01/16 05:48:36;;;;;;;15.60;9.95;;;3.10;99.90;;;;;;5007150;28;20077;-79
2023/01/16 05:51:03;;;;;;;11.80;8.88;;;3.00;99.90;;;;;;5007462;28;20042;-79
2023/01/16 05:53:30;;;;;;;15.00;9.70;;;3.10;99.90;;;;;;5004876;28;20041;-79
2023/01/16 05:55:56;;;;;;;15.30;8.95;;;3.00;99.90;;;;;;5013086;28;20060;-79
2023/01/16 05:58:22;;;;;;;11.45;8.65;;;3.00;99.90;;;;;;5016036;28;20052;-80
2023/01/16 06:00:48;;;;;;;15.57;9.02;;;3.00;99.90;;;;;;5014603;28;20117;-79
2023/01/16 06:03:15;;;;;;;14.35;7.82;;;3.00;99.90;;;;;;4991665;28;20510;-80
2023/01/16 06:05:41;;;;;;;13.18;8.52;;;3.10;99.90;;;;;;5008098;28;20040;-79
2023/01/16 06:08:07;;;;;;;14.30;8.35;;;3.10;99.90;;;;;;5012547;28;20064;-78
2023/01/16 06:10:33;;;;;;;13.10;8.45;;;3.00;99.90;;;;;;5028659;28;20041;-79
2023/01/16 06:13:00;;;;;;;13.85;8.20;;;3.10;99.90;;;;;;5010225;28;20040;-78
2023/01/16 06:15:26;;;;;;;11.15;7.97;;;3.10;99.90;;;;;;4996221;28;20478;-78
2023/01/16 06:17:53;;;;;;;12.15;7.63;;;3.10;99.90;;;;;;5030924;28;20041;-78
2023/01/16 06:20:19;;;;;;;12.43;7.90;;;3.10;99.90;;;;;;5014733;28;20076;-80
2023/01/16 06:22:45;;;;;;;12.40;7.18;;;3.10;99.90;;;;;;5001649;28;20071;-80
2023/01/16 06:25:11;;;;;;;11.88;6.82;;;3.10;99.90;;;;;;5018083;28;20500;-81
2023/01/16 06:27:37;;;;;;;13.35;6.60;;;3.10;99.90;;;;;;5024048;28;20060;-79
2023/01/16 06:30:03;;;;;;;12.25;6.80;;;3.10;99.90;;;;;;4993175;28;20049;-79
2023/01/16 06:32:29;;;;;;;10.93;5.80;;;3.10;99.90;;;;;;4993617;28;20056;-80
2023/01/16 06:34:55;;;;;;;7.13;5.00;;;3.10;99.90;;;;;;4999068;28;20033;-79
2023/01/16 06:37:20;;;;;;;9.65;5.88;;;3.10;99.90;;;;;;5009083;28;20091;-79
2023/01/16 06:39:46;;;;;;;12.57;6.63;;;3.10;99.90;;;;;;5013072;28;20049;-78
2023/01/16 06:42:11;;;;;;;11.63;6.60;;;3.10;99.90;;;;;;5017052;28;20042;-79
2023/01/16 06:44:37;;;;;;;10.85;5.82;;;3.10;99.90;;;;;;5017163;28;20499;-79
2023/01/16 06:47:03;;;;;;;9.65;6.20;;;3.10;99.90;;;;;;5017276;28;20040;-79
2023/01/16 06:49:28;;;;;;;11.43;6.05;;;3.10;99.90;;;;;;4989692;28;20057;-79
2023/01/16 06:51:54;;;;;;;11.98;5.88;;;3.10;99.90;;;;;;5009445;28;20091;-79
2023/01/16 06:54:19;;;;;;;11.52;6.25;;;3.10;99.90;;;;;;4983568;28;20101;-78
2023/01/16 06:56:45;;;;;;;10.68;6.38;;;3.10;99.90;;;;;;4998238;28;20037;-78
2023/01/16 06:59:11;;;;;;;11.07;6.35;;;3.10;99.90;;;;;;5021168;28;20033;-79
2023/01/16 07:01:36;;;;;;;10.27;6.18;;;3.10;99.90;;;;;;5008771;28;20053;-78
2023/01/16 07:04:02;;;;;;;12.65;6.03;;;3.10;99.90;;;;;;5002546;28;20041;-78
2023/01/16 07:06:27;;;;;;;11.90;6.10;;;3.10;99.90;;;;;;5024103;28;20060;-79
2023/01/16 07:08:53;;;;;;;9.75;5.75;;;3.10;99.90;;;;;;5016077;28;20412;-77
2023/01/16 07:11:19;;;;;;;10.50;6.50;;;3.10;99.90;;;;;;5006378;28;20037;-79
2023/01/16 07:13:45;;;;;;;8.82;5.95;;;3.10;99.90;;;;;;5037486;28;20045;-79
2023/01/16 07:24:42;;;;;;;11.48;6.45;;;3.20;99.90;;;;;;5022419;28;20044;-80
2023/01/16 07:27:09;;;;;;;8.50;6.50;;;3.20;99.90;;;;;;5010256;28;20038;-80
2023/01/16 07:29:36;;;;;;;14.45;6.35;;;3.20;99.90;;;;;;5026670;28;20037;-80
2023/01/16 07:32:03;;;;;;;15.25;6.75;;;3.20;99.90;;;;;;5027273;28;20546;-80
2023/01/16 07:34:28;;;;;;;15.82;6.55;;;3.20;99.90;;;;;;5022075;28;20527;-79
2023/01/16 07:36:54;;;;;;;13.20;6.57;;;3.30;99.90;;;;;;5010659;28;20050;-80
2023/01/16 07:39:19;;;;;;;11.85;6.97;;;3.30;99.90;;;;;;5010426;28;20030;-80
2023/01/16 07:41:46;;;;;;;12.32;7.32;;;3.30;99.90;;;;;;5011453;28;20045;-80
2023/01/16 07:44:12;;;;;;;9.85;7.07;;;3.30;99.90;;;;;;5012451;28;20120;-80
2023/01/16 07:46:38;;;;;;;11.02;7.50;;;3.30;99.90;;;;;;5011526;28;20041;-80
2023/01/16 07:49:03;;;;;;;13.20;7.80;;;3.40;99.90;;;;;;5028230;28;20108;-80
2023/01/16 07:51:29;;;;;;;10.50;6.93;;;3.40;99.90;;;;;;5012026;28;20113;-80
2023/01/16 07:53:54;;;;;;;10.63;7.30;;;3.40;99.90;;;;;;5012121;28;20044;-80
2023/01/16 07:56:20;;;;;;;11.02;7.80;;;3.40;99.90;;;;;;5009555;28;20412;-79
2023/01/16 07:58:46;;;;;;;13.85;8.25;;;3.50;99.90;;;;;;5028018;28;20243;-80
2023/01/16 08:01:11;;;;;;;13.25;8.45;;;3.50;99.90;;;;;;5032199;28;20393;-80
2023/01/16 08:03:38;;;;;;;12.55;8.77;;;3.50;99.90;;;;;;5034518;28;20037;-80
2023/01/16 08:06:04;;;;;;;11.55;9.00;;;3.60;99.90;;;;;;5019742;28;20049;-80
2023/01/16 08:08:30;;;;;;;13.52;8.63;;;3.60;99.90;;;;;;5000548;28;20041;-80
2023/01/16 08:10:58;;;;;;;13.30;7.88;;;3.60;99.90;;;;;;5013153;28;20092;-80
2023/01/16 08:13:24;;;;;;;11.30;8.30;;;3.60;99.90;;;;;;5002335;28;20251;-79
2023/01/16 08:15:50;;;;;;;12.55;8.30;;;3.70;99.90;;;;;;5018698;28;20041;-80
2023/01/16 08:18:18;;;;;;;8.48;7.38;;;3.70;99.90;;;;;;5019310;28;20488;-80
2023/01/16 08:20:44;;;;;;;11.45;8.43;;;3.70;99.90;;;;;;5019139;28;20037;-80
2023/01/16 08:23:10;;;;;;;11.18;7.47;;;3.70;99.90;;;;;;5019893;28;20095;-80
2023/01/16 08:25:36;;;;;;;9.70;7.40;;;3.80;99.90;;;;;;5016886;28;20049;-79
2023/01/16 08:28:02;;;;;;;10.77;8.13;;;3.80;99.90;;;;;;5019048;28;20041;-80
2023/01/16 08:30:27;;;;;;;10.35;7.38;;;3.80;99.90;;;;;;5004341;28;20395;-80
2023/01/16 08:33:00;;;;;;;11.40;7.93;;;3.80;99.90;;;;;;5020642;28;20037;-80
2023/01/16 08:35:26;;;;;;;11.15;7.13;;;3.80;99.90;;;;;;5020259;28;20397;-79
2023/01/16 08:37:51;;;;;;;9.55;7.63;;;3.80;99.90;;;;;;5009764;28;20045;-79
2023/01/16 08:40:17;;;;;;;10.50;7.95;;;3.80;99.90;;;;;;5020330;28;20034;-80
2023/01/16 08:53:44;;;;;;;10.75;6.57;;;3.80;99.90;;;;;;5012882;28;20052;-80
2023/01/16 08:56:10;;;;;;;9.48;6.93;;;3.80;99.90;;;;;;5019468;28;20130;-80
2023/01/16 08:58:35;;;;;;;8.50;6.32;;;3.80;99.90;;;;;;5020312;28;20037;-80
2023/01/16 09:01:01;;;;;;;12.07;6.18;;;3.80;99.90;;;;;;5004922;28;20407;-80
2023/01/16 09:03:26;;;;;;;11.50;6.18;;;3.80;99.90;;;;;;5015452;28;20041;-80
2023/01/16 09:05:52;;;;;;;7.07;5.03;;;3.80;99.90;;;;;;5021964;28;20037;-80
2023/01/16 09:08:17;;;;;;;8.07;5.32;;;3.90;99.90;;;;;;5020267;28;20457;-80
2023/01/16 09:13:48;;;;;;;7.30;5.20;;;3.90;99.90;;;;;;5016013;28;20038;-80
2023/01/16 09:16:12;;;;;;;8.13;5.35;;;3.90;99.90;;;;;;5013646;28;20052;-80
2023/01/16 09:18:38;;;;;;;7.03;4.78;;;3.90;99.90;;;;;;5003159;28;20049;-80
2023/01/16 09:21:04;;;;;;;6.95;4.65;;;3.90;99.90;;;;;;5020509;28;20033;-80
2023/01/16 09:23:29;;;;;;;5.63;4.03;;;3.90;99.90;;;;;;5003038;28;20044;-81
2023/01/16 09:25:55;;;;;;;9.35;4.40;;;4.00;99.90;;;;;;5018377;28;20044;-81
2023/01/16 09:28:20;;;;;;;6.80;3.58;;;3.90;99.90;;;;;;5020282;28;20052;-81
2023/01/16 09:30:46;;;;;;;5.10;3.88;;;4.00;99.90;;;;;;5020409;28;20051;-81
2023/01/16 09:33:11;;;;;;;6.18;3.70;;;4.00;99.90;;;;;;5020895;28;20034;-81
2023/01/16 09:35:37;;;;;;;5.95;4.15;;;4.00;99.90;;;;;;5004462;28;20400;-81
2023/01/16 09:38:03;;;;;;;7.18;3.33;;;4.00;99.90;;;;;;5004196;28;20065;-81
2023/01/16 09:40:29;;;;;;;6.38;3.35;;;4.00;99.90;;;;;;5026436;28;20068;-82
2023/01/16 09:43:38;;;;;;;9.20;3.70;;;4.00;99.90;;;;;;5019310;28;20037;-83
2023/01/16 09:46:12;;;;;;;7.82;3.58;;;4.00;99.90;;;;;;5018414;28;20526;-83
2023/01/16 09:49:16;;;;;;;7.07;3.20;;;4.00;99.90;;;;;;5018412;28;20042;-82
2023/01/16 09:58:34;;;;;;;8.18;3.53;;;4.00;99.90;;;;;;5001137;28;20063;-81
2023/01/16 10:00:15;;;;;;;7.05;3.40;;;4.00;99.90;;;;;;5019902;28;20053;-83
2023/01/16 10:02:41;;;;;;;4.10;2.90;;;4.00;99.90;;;;;;4998751;28;20097;-81
2023/01/16 10:05:08;;;;;;;4.15;3.00;;;3.90;99.90;;;;;;4984913;28;20087;-82
2023/01/16 10:07:52;;;;;;;5.40;3.50;;;3.90;99.90;;;;;;5019601;28;20052;-82
2023/01/16 10:10:40;;;;;;;5.82;3.38;;;3.90;99.90;;;;;;5002462;28;20092;-81
2023/01/16 10:13:30;;;;;;;5.57;3.05;;;3.80;99.90;;;;;;5020345;28;20166;-82
2023/01/16 10:16:11;;;;;;;5.55;3.35;;;3.80;99.90;;;;;;4997148;28;20111;-82
2023/01/16 10:19:23;;;;;;;5.47;3.28;;;3.70;99.90;;;;;;5001391;28;20090;-82
2023/01/16 10:22:07;;;;;;;4.22;3.60;;;3.70;99.90;;;;;;4996265;28;20530;-82
2023/01/16 10:24:50;;;;;;;5.38;3.40;;;3.70;99.90;;;;;;4995783;28;20042;-82
2023/01/16 10:27:42;;;;;;;6.63;3.90;;;3.70;99.90;;;;;;4983432;28;20069;-82
2023/01/16 10:30:26;;;;;;;4.95;3.38;;;3.60;99.90;;;;;;4970833;28;20052;-81
2023/01/16 10:33:13;;;;;;;5.88;3.90;;;3.60;99.90;;;;;;4998870;28;20042;-82
2023/01/16 10:35:46;;;;;;;4.95;3.85;;;3.70;99.90;;;;;;5019426;28;20436;-81
2023/01/16 10:38:57;;;;;;;4.88;3.97;;;3.70;99.90;;;;;;4999446;28;20459;-81
2023/01/16 10:50:17;;;;;;;5.88;4.55;;;3.60;99.90;;;;;;4997774;28;20044;-82
2023/01/16 10:52:43;;;;;;;6.75;4.57;;;3.60;99.90;;;;;;4997959;28;20056;-81
2023/01/16 10:55:10;;;;;;;7.72;4.93;;;3.60;99.90;;;;;;4998375;28;20411;-81
2023/01/16 10:57:47;;;;;;;6.32;4.88;;;3.60;99.90;;;;;;5012871;28;20052;-82
2023/01/16 11:00:18;;;;;;;5.63;4.55;;;3.60;99.90;;;;;;4999471;28;20044;-81
2023/01/16 11:02:46;;;;;;;6.53;4.57;;;3.60;99.90;;;;;;5016548;28;20087;-82
2023/01/16 11:05:32;;;;;;;5.72;5.07;;;3.60;99.90;;;;;;5000228;28;20562;-82
2023/01/16 11:08:11;;;;;;;6.78;5.30;;;3.60;99.90;;;;;;4996775;28;20038;-83
2023/01/16 11:10:39;;;;;;;6.50;5.50;;;3.60;99.90;;;;;;5000794;28;20046;-81
2023/01/16 11:18:52;;;;;;;7.80;5.55;;;3.70;99.90;;;;;;4989705;28;20045;-82
2023/01/16 11:21:31;;;;;;;7.72;5.60;;;3.70;99.90;;;;;;5016914;28;20096;-82
2023/01/16 11:24:10;;;;;;;8.13;5.50;;;3.70;99.90;;;;;;5017343;28;20175;-82
2023/01/16 11:26:36;;;;;;;7.82;6.30;;;3.70;99.90;;;;;;5017294;28;20041;-82
2023/01/16 11:29:02;;;;;;;9.43;5.85;;;3.70;99.90;;;;;;5000771;28;20047;-82
2023/01/16 11:31:31;;;;;;;7.43;5.68;;;3.80;99.90;;;;;;5003808;28;20526;-82
2023/01/16 11:34:02;;;;;;;8.80;6.25;;;3.80;99.90;;;;;;5011934;28;20514;-82
2023/01/16 11:36:32;;;;;;;8.63;5.47;;;3.80;99.90;;;;;;5017670;28;20574;-82
2023/01/16 11:38:58;;;;;;;7.63;5.72;;;3.80;99.90;;;;;;5017810;28;20041;-82
2023/01/16 11:41:31;;;;;;;8.68;5.70;;;3.80;99.90;;;;;;5018534;28;20404;-81
2023/01/16 11:46:59;;;;;;;9.52;5.32;;;3.90;99.90;;;;;;5021587;28;20046;-81
2023/01/16 11:49:35;;;;;;;8.38;5.80;;;4.00;99.90;;;;;;5005459;28;20120;-81
2023/01/16 11:52:03;;;;;;;7.47;6.10;;;4.00;99.90;;;;;;5018835;28;20041;-82
2023/01/16 11:54:34;;;;;;;8.10;6.07;;;4.00;99.90;;;;;;5021703;28;20041;-81
2023/01/16 11:57:00;;;;;;;7.97;5.55;;;4.10;99.90;;;;;;5001935;28;20119;-82
2023/01/16 11:59:43;;;;;;;6.85;5.90;;;4.10;99.90;;;;;;4999390;28;20045;-82
2023/01/16 12:02:41;;;;;;;7.38;5.47;;;4.10;99.90;;;;;;5022658;28;20038;-82
2023/01/16 12:05:56;;;;;;;7.82;5.88;;;4.20;99.90;;;;;;5015072;28;20048;-82
2023/01/16 12:08:49;;;;;;;6.63;4.93;;;4.20;99.90;;;;;;5002920;28;20034;-82
2023/01/16 12:11:27;;;;;;;7.10;5.68;;;4.20;99.90;;;;;;5002915;28;20408;-82
2023/01/16 12:14:21;;;;;;;5.45;4.90;;;4.20;99.90;;;;;;5003768;28;20409;-82
2023/01/16 12:17:14;;;;;;;6.90;6.20;;;4.20;99.90;;;;;;5000784;28;20045;-81
2023/01/16 12:19:43;;;;;;;;;;;4.20;99.90;;;;;;5002515;28;20042;-82
2023/01/16 12:22:24;;;;;;;8.45;5.68;;;4.20;99.90;;;;;;5023697;28;20409;-81
2023/01/16 12:25:08;;;;;;;6.53;5.70;;;4.30;99.90;;;;;;5023766;28;20033;-82
2023/01/16 12:27:49;;;;;;;7.00;5.97;;;4.30;99.90;;;;;;5003753;28;20061;-82
2023/01/16 12:30:36;;;;;;;10.35;7.25;;;4.30;99.90;;;;;;5003070;28;20080;-81
2023/01/16 12:33:21;;;;;;;7.38;5.88;;;4.40;99.90;;;;;;5019742;28;20091;-82
2023/01/16 12:36:00;;;;;;;7.63;5.30;;;4.40;99.90;;;;;;5018311;28;20048;-82
2023/01/16 12:38:40;;;;;;;7.00;6.30;;;4.40;99.90;;;;;;5017054;28;20100;-81
2023/01/16 12:44:38;;;;;;;8.95;6.35;;;4.40;99.90;;;;;;5015678;28;20510;-83
2023/01/16 12:47:16;;;;;;;7.15;6.45;;;4.40;99.90;;;;;;5000926;28;20033;-83
2023/01/16 12:49:57;;;;;;;6.65;5.93;;;4.40;99.90;;;;;;5008667;28;20038;-83
2023/01/16 12:52:52;;;;;;;7.13;6.47;;;4.30;99.90;;;;;;5002904;28;20136;-83
2023/01/16 12:55:27;;;;;;;8.38;6.32;;;4.40;99.90;;;;;;4998448;28;20404;-83
2023/01/16 12:58:23;;;;;;;8.02;6.35;;;4.40;99.90;;;;;;4997711;28;20061;-83
2023/01/16 13:01:06;;;;;;;7.63;6.15;;;4.40;99.90;;;;;;4998117;28;20461;-82
2023/01/16 13:03:39;;;;;;;9.23;6.10;;;4.40;99.90;;;;;;4999989;28;20068;-83
2023/01/16 13:06:11;;;;;;;7.82;5.03;;;4.40;99.90;;;;;;5001659;28;20463;-83
2023/01/16 13:08:58;;;;;;;7.70;5.38;;;4.50;99.90;;;;;;5009110;28;20045;-83
2023/01/16 13:14:15;;;;;;;6.68;4.95;;;4.50;99.90;;;;;;5017855;28;20486;-83
2023/01/16 13:16:48;;;;;;;6.03;5.00;;;4.50;99.90;;;;;;5018028;28;20037;-83
2023/01/16 13:19:26;;;;;;;5.78;4.80;;;4.50;99.90;;;;;;5014043;28;20048;-83
2023/01/16 13:21:59;;;;;;;6.38;4.57;;;4.60;99.90;;;;;;5018108;28;20037;-83
2023/01/16 13:24:33;;;;;;;4.80;4.22;;;4.60;99.90;;;;;;5000718;28;20037;-84
2023/01/16 13:27:06;;;;;;;6.20;3.95;;;4.60;99.90;;;;;;5016303;28;20150;-84
2023/01/16 13:29:41;;;;;;;7.07;4.07;;;4.60;99.90;;;;;;5001522;28;20124;-83
2023/01/16 13:32:30;;;;;;;6.15;4.80;;;4.60;99.90;;;;;;5018478;28;20053;-83
2023/01/16 13:35:20;;;;;;;4.93;3.83;;;4.60;99.90;;;;;;4995589;28;20049;-84
2023/01/16 13:37:57;;;;;;;6.03;4.13;;;4.60;99.90;;;;;;4989746;28;20049;-83
2023/01/16 13:40:42;;;;;;;5.80;3.75;;;4.60;99.90;;;;;;4994874;28;20068;-83
2023/01/16 13:45:59;;;;;;;5.43;4.43;;;4.60;99.90;;;;;;5018732;28;20060;-84
2023/01/16 13:48:34;;;;;;;5.28;3.97;;;4.70;99.90;;;;;;5000359;28;20096;-85
2023/01/16 13:51:06;;;;;;;5.63;3.72;;;4.70;99.90;;;;;;5018698;28;20495;-84
2023/01/16 13:53:35;;;;;;;7.22;4.30;;;4.70;99.90;;;;;;5002306;28;20044;-84
2023/01/16 13:56:22;;;;;;;6.10;4.00;;;4.70;99.90;;;;;;5018853;28;20080;-84
2023/01/16 13:59:07;;;;;;;5.90;3.90;;;4.70;99.90;;;;;;5002643;28;20124;-84
2023/01/16 14:01:37;;;;;;;5.68;3.65;;;4.70;99.90;;;;;;5006240;28;20047;-84
2023/01/16 14:04:10;;;;;;;6.57;3.97;;;4.70;99.90;;;;;;5002770;28;20041;-84
2023/01/16 14:06:43;;;;;;;5.65;4.00;;;4.70;99.90;;;;;;5002688;28;20045;-84
2023/01/16 14:09:21;;;;;;;4.47;3.67;;;4.80;99.90;;;;;;5015706;28;20043;-84
2023/01/16 14:12:12;;;;;;;5.78;4.28;;;4.80;99.90;;;;;;5013958;28;20042;-84
2023/01/16 14:17:49;;;;;;;5.57;3.83;;;4.80;99.90;;;;;;4998067;28;20527;-83
2023/01/16 14:20:35;;;;;;;5.25;3.67;;;4.80;99.90;;;;;;4998396;28;20108;-84